Miami, FL

6:28 AM EDT on April 19, 2015 (GMT -0400)
Silver Bluff | | Change Station
CLOSE
Current Station
Personal Weather Station
Location: Miami, FL
Elevation: 15 ft
Nearby Weather Stations

Elev 15 ft 25.75 °N, 80.23 °W | Updated 2 minutes ago

Scattered Clouds
Scattered Clouds
76.7 °F
Feels Like 78 °F
N
0.0
Wind Variable Wind from SSW
Gusts 0.0 mph

Today
High -- | Low -- °F
--% Chance of Precip.
Yesterday
High -- | Low -- °F
Precip. -- in
6:54 AM 7:46 PM
New Moon, 1% visible
Pressure 29.95 in
Visibility 10.0 miles
Clouds Few 2500 ft
Scattered Clouds 25000 ft
Heat Index 78 °F
Dew Point 69 °F
Humidity 77%
Rainfall in
Snow Depth Not available.
UV 0 out of 12
Pollen 5.80 out of 12
Air Quality Not available.
Flu Activity Local Activity
METAR KMIA 190953Z 18004KT 10SM FEW025 SCT250 25/21 A2995 RMK AO2 SLP142 T02500211

More Conditions Fewer Conditions

Pressure 29.95 in
Visibility 10.0 miles
Clouds Few 2500 ft
Scattered Clouds 25000 ft
Heat Index 78 °F
Dew Point 69 °F
Humidity 77%
Rainfall in
Snow Depth Not available.
UV 0 out of 12
Pollen 5.80 out of 12
Air Quality Not available.
Flu Activity Local Activity
METAR KMIA 190953Z 18004KT 10SM FEW025 SCT250 25/21 A2995 RMK AO2 SLP142 T02500211

More Conditions Fewer Conditions

10-Day Weather Forecast

Almanac

Astronomy

Apr. 19, 2015 Rise Set
Actual Time
Civil Twilight
Nautical Twilight
Astronomical Twilight
Moon
Length of Visible Light
Length of Day
Tomorrow will be .
, % of the Moon is Illuminated

Today's Extremes

State Highs State Lows

Community

WunderPhotos

Upload Photos

1,814,759 photos uploaded!

WunderBlogs® & News

Nearby

Air Quality

  Air Quality AQ Index Pollutant
Not available.

Snow Depth

Station Depth Elevation

Earthquake Activity

City Distance Mag. Time & Date
Minimum magnitude displayed is 2.5.

Coastal Water Temperatures

Place Temperature

Stations

Nearby Weather Stations

Station Location Temp. Windchill Dew Point Humidity Wind Precip. Elev Updated Type